Latest Coastal Weather Observations for Flinders Reef

IDQ60701

Issued at 4:13 pm EST Wednesday 8 February 2023 (issued every 10 minutes, with the page automatically refreshed every 10 minutes)

About coastal observations | Map of coastal stations | Coastal observations for QLD | Marine services | Other Formats
Station Details ID: 200783 Name: FLINDERS REEF Lat: -17.72 Lon: 148.45 Height: 2.6 m
Data from the previous 72 hours. | See also: Recent months at Flinders Reef
Date/Time
EST
Wind Sea
Height
m
Swell Vis
km
Cloud Weather Temp
°C
Press
MSL
hPa
Rain since
9am
mm
Dir  Spd
kts
Gust
kts
Height
m
Period
s
Dir
08/04:00pm S 23 27 - - - - - - - 29.0 999.9 -
08/03:30pm S 25 29 - - - - - - - 28.9 1000.0 -
08/03:00pm S 23 29 - - - - - - - 27.7 1000.3 -
08/02:30pm S 24 28 - - - - - - - 28.9 1000.1 -
08/02:00pm S 23 26 - - - - - - - 29.2 1000.3 -
08/01:30pm S 23 28 - - - - - - - 28.9 1000.7 -
08/01:00pm S 22 25 - - - - - - - 28.9 1001.1 -
08/12:30pm S 23 28 - - - - - - - 28.8 1001.5 -
08/12:00pm S 23 27 - - - - - - - 28.9 1001.8 -
08/11:30am S 23 28 - - - - - - - 29.0 1002.2 -
08/11:00am SSE 21 25 - - - - - - - 29.1 1002.6 -
08/10:30am SSE 23 27 - - - - - - - 28.7 1002.7 -
08/10:00am SSE 22 27 - - - - - - - 28.8 1002.8 -
08/09:30am SSE 21 25 - - - - - - - 28.5 1003.0 -
08/09:00am SSE 21 25 - - - - - - - 28.4 1003.2 -
08/08:30am SSE 22 26 - - - - - - - 28.8 1003.1 -
08/08:00am SSE 22 25 - - - - - - - 28.3 1003.1 -
08/07:30am SSE 25 29 - - - - - - - 28.4 1002.9 -
08/07:00am SSE 23 28 - - - - - - - 27.7 1002.7 -
08/06:30am SSE 24 27 - - - - - - - 29.0 1002.2 -
08/06:00am SSE 23 27 - - - - - - - 29.1 1001.9 -
08/05:30am SSE 23 27 - - - - - - - 29.0 1001.6 -
08/05:00am SE 24 28 - - - - - - - 29.0 1001.5 -
08/04:30am SSE 22 27 - - - - - - - 28.8 1001.6 -
08/04:00am SSE 21 28 - - - - - - - 28.7 1001.6 -
08/03:30am SE 21 25 - - - - - - - 28.7 1001.8 -
08/03:00am SE 21 25 - - - - - - - 28.3 1001.8 -
08/02:30am SE 22 25 - - - - - - - 28.5 1002.0 -
08/02:00am SE 23 26 - - - - - - - 28.6 1002.4 -
08/01:30am SE 23 26 - - - - - - - 28.8 1002.6 -
08/01:00am SE 23 29 - - - - - - - 28.0 1003.3 -
08/12:30am SSE 21 25 - - - - - - - 28.8 1003.7 -
08/12:00am SSE 23 28 - - - - - - - 28.6 1004.0 -
 
Date/Time
EST
Wind Sea
Height
m
Swell Vis
km
Cloud Weather Temp
°C
Press
MSL
hPa
Rain since
9am
mm
Dir  Spd
kts
Gust
kts
Height
m
Period
s
Dir
07/11:30pm SE 20 24 - - - - - - - 28.2 1004.7 -
07/11:00pm SE 24 30 - - - - - - - 26.9 1004.9 -
07/10:30pm SE 24 27 - - - - - - - 27.2 1005.3 -
07/10:00pm SE 23 29 - - - - - - - 28.3 1005.1 -
07/09:30pm SE 24 28 - - - - - - - 29.4 1004.9 -
07/09:00pm SE 22 26 - - - - - - - 29.3 1004.8 -
07/08:30pm SE 23 29 - - - - - - - 29.3 1004.4 -
07/08:00pm SSE 22 28 - - - - - - - 29.4 1004.4 -
07/07:30pm SE 22 25 - - - - - - - 29.2 1004.3 -
07/07:00pm SSE 23 28 - - - - - - - 29.1 1003.7 -
07/06:30pm SSE 20 23 - - - - - - - 27.7 1003.3 -
07/06:00pm SSE 23 27 - - - - - - - 27.0 1003.3 -
07/05:37pm SE 24 29 - - - - - - - 26.9 1003.3 -
07/05:30pm SSE 22 29 - - - - - - - 27.7 1003.4 -
07/05:00pm SSE 17 23 - - - - - - - 27.7 1003.3 -
07/04:30pm SSE 22 27 - - - - - - - 28.6 1003.0 -
07/04:00pm SSE 20 23 - - - - - - - 29.5 1003.1 -
07/03:30pm SSE 20 23 - - - - - - - 29.2 1003.3 -
07/03:00pm SSE 17 20 - - - - - - - 29.2 1003.5 -
07/02:30pm SSE 17 20 - - - - - - - 29.3 1003.6 -
07/02:00pm SSE 18 20 - - - - - - - 29.3 1004.0 -
07/01:30pm SSE 17 19 - - - - - - - 29.3 1004.4 -
07/01:00pm SSE 17 19 - - - - - - - 29.4 1004.8 -
07/12:30pm SSE 17 19 - - - - - - - 29.2 1005.0 -
07/12:00pm SE 17 20 - - - - - - - 29.4 1005.4 -
07/11:30am SE 17 19 - - - - - - - 29.2 1005.9 -
07/11:00am SE 15 19 - - - - - - - 29.1 1006.3 -
07/10:30am SE 14 16 - - - - - - - 29.0 1006.4 -
07/10:00am SE 15 18 - - - - - - - 29.0 1006.4 -
07/09:30am SE 15 18 - - - - - - - 29.1 1006.5 -
07/09:00am SE 16 19 - - - - - - - 29.0 1006.4 -
07/08:30am SE 16 19 - - - - - - - 28.9 1006.4 -
07/08:00am SE 15 18 - - - - - - - 29.0 1006.4 -
07/07:30am SE 16 19 - - - - - - - 28.6 1006.2 -
07/07:00am ESE 15 17 - - - - - - - 28.9 1006.0 -
07/06:30am ESE 15 17 - - - - - - - 28.7 1005.6 -
07/06:00am ESE 16 19 - - - - - - - 28.4 1005.4 -
07/05:30am ESE 17 20 - - - - - - - 28.7 1005.3 -
07/05:00am ESE 16 19 - - - - - - - 28.5 1005.0 -
07/04:30am E 16 19 - - - - - - - 28.6 1005.1 -
07/04:00am E 17 19 - - - - - - - 28.8 1005.0 -
07/03:30am E 19 21 - - - - - - - 29.0 1005.0 -
07/03:00am ESE 18 22 - - - - - - - 28.9 1005.1 -
07/02:30am ESE 17 20 - - - - - - - 28.7 1005.3 -
07/02:00am ESE 18 20 - - - - - - - 29.0 1005.7 -
07/01:30am ESE 18 21 - - - - - - - 28.9 1006.0 -
07/01:00am ESE 18 21 - - - - - - - 28.8 1006.4 -
07/12:30am ESE 18 20 - - - - - - - 29.1 1006.8 -
07/12:00am ESE 16 20 - - - - - - - 29.0 1007.3 -
 
Date/Time
EST
Wind Sea
Height
m
Swell Vis
km
Cloud Weather Temp
°C
Press
MSL
hPa
Rain since
9am
mm
Dir  Spd
kts
Gust
kts
Height
m
Period
s
Dir
06/11:30pm ESE 16 19 - - - - - - - 28.9 1007.4 -
06/11:00pm ESE 16 19 - - - - - - - 29.2 1007.9 -
06/10:30pm ESE 19 21 - - - - - - - 29.3 1007.9 -
06/10:00pm ESE 18 20 - - - - - - - 28.9 1007.8 -
06/09:30pm ESE 16 19 - - - - - - - 29.1 1007.6 -
06/09:00pm ESE 17 19 - - - - - - - 29.1 1007.6 -
06/08:30pm ESE 17 19 - - - - - - - 29.0 1007.4 -
06/08:00pm E 18 21 - - - - - - - 29.1 1007.1 -
06/07:30pm E 18 20 - - - - - - - 29.1 1006.9 -
06/07:00pm E 17 20 - - - - - - - 29.0 1006.7 -
06/06:30pm ESE 18 21 - - - - - - - 29.0 1006.6 -
06/06:00pm E 18 21 - - - - - - - 29.2 1006.6 -
06/05:30pm ESE 17 19 - - - - - - - 29.1 1006.4 -
06/05:00pm ESE 18 21 - - - - - - - 29.1 1006.3 -
06/04:30pm ESE 18 21 - - - - - - - 29.0 1006.1 -
06/04:00pm ESE 19 21 - - - - - - - 29.0 1006.0 -
06/03:30pm ESE 19 21 - - - - - - - 29.2 1006.1 -
06/03:00pm ESE 19 22 - - - - - - - 29.3 1006.3 -
06/02:30pm ESE 18 21 - - - - - - - 29.4 1006.4 -
06/02:00pm ESE 18 20 - - - - - - - 29.1 1006.5 -
06/01:30pm ESE 16 18 - - - - - - - 29.2 1006.8 -
06/01:00pm ESE 16 19 - - - - - - - 29.3 1007.2 -
06/12:30pm E 16 18 - - - - - - - 29.2 1007.4 -
06/12:00pm ESE 15 17 - - - - - - - 29.4 1007.7 -
06/11:30am ESE 15 18 - - - - - - - 29.1 1008.1 -
06/11:00am E 15 17 - - - - - - - 29.1 1008.6 -
06/10:30am ESE 12 15 - - - - - - - 29.0 1008.9 -
06/10:00am ESE 15 17 - - - - - - - 29.0 1008.8 -
06/09:30am E 14 16 - - - - - - - 29.0 1009.0 -
06/09:00am E 14 17 - - - - - - - 29.2 1009.0 -
06/08:30am E 14 16 - - - - - - - 29.4 1008.9 -
06/08:00am E 15 17 - - - - - - - 28.9 1008.7 -
06/07:30am ESE 15 16 - - - - - - - 29.1 1008.6 -
06/07:00am ESE 14 15 - - - - - - - 29.1 1008.3 -
06/06:30am E 15 17 - - - - - - - 29.1 1007.9 -
06/06:00am E 16 18 - - - - - - - 29.0 1007.5 -
06/05:30am E 17 19 - - - - - - - 29.1 1007.1 -
06/05:00am E 16 18 - - - - - - - 28.9 1006.8 -
06/04:30am ENE 14 16 - - - - - - - 28.6 1006.8 -
06/04:00am ENE 11 13 - - - - - - - 27.8 1006.6 -
06/03:46am ENE 11 15 - - - - - - - 27.0 1006.5 -
06/03:30am ENE 22 25 - - - - - - - 27.0 1006.4 -
06/03:18am SE 9 23 - - - - - - - 28.1 1006.5 -
06/03:00am ENE 6 7 - - - - - - - 28.3 1006.5 -
06/02:30am ENE 9 10 - - - - - - - 28.6 1006.4 -
06/02:00am NE 10 11 - - - - - - - 28.8 1006.4 -
06/01:30am NE 14 16 - - - - - - - 28.6 1006.8 -
06/01:00am NE 20 24 - - - - - - - 28.0 1007.0 -
06/12:44am ENE 18 26 - - - - - - - 27.8 1007.1 -
06/12:30am ENE 13 16 - - - - - - - 28.6 1007.4 -
06/12:00am ENE 15 17 - - - - - - - 29.1 1007.5 -
 
Date/Time
EST
Wind Sea
Height
m
Swell Vis
km
Cloud Weather Temp
°C
Press
MSL
hPa
Rain since
9am
mm
Dir  Spd
kts
Gust
kts
Height
m
Period
s
Dir
05/11:30pm E 13 15 - - - - - - - 29.1 1007.5 -
05/11:12pm E 5 17 - - - - - - - 29.0 1007.7 -
05/11:00pm ENE 1 3 - - - - - - - 28.7 1007.8 -
05/10:30pm NE 11 13 - - - - - - - 28.2 1007.9 -
05/10:00pm ESE 12 15 - - - - - - - 29.3 1007.8 -
05/09:30pm ESE 14 16 - - - - - - - 29.0 1007.5 -
05/09:00pm E 13 14 - - - - - - - 29.5 1007.2 -
05/08:30pm E 12 14 - - - - - - - 29.4 1007.1 -
05/08:00pm E 1 3 - - - - - - - 29.1 1007.0 -
05/07:30pm E 10 12 - - - - - - - 28.7 1006.8 -
05/07:00pm ENE 7 11 - - - - - - - 29.4 1006.5 -
05/06:30pm E 9 11 - - - - - - - 29.8 1006.2 -
05/06:00pm ENE 11 12 - - - - - - - 29.9 1006.0 -
05/05:30pm ENE 11 12 - - - - - - - 29.7 1005.7 -
05/05:00pm ENE 9 11 - - - - - - - 30.3 1005.6 -
05/04:30pm E 9 10 - - - - - - - 30.4 1005.4 -

Other formats

Comma delimited format used in spreadsheet applications
http://www.bom.gov.au/fwo/IDQ60701/IDQ60701.94290.axf

JavaScript Object Notation format (JSON) in row-major order
http://www.bom.gov.au/fwo/IDQ60701/IDQ60701.94290.json

Data quality

Most of these data are generated automatically and are frequently updated. Quality checks on data are not normally performed. It is possible for incorrect values to appear. Refer to information at About Latest Weather Observations and please check the disclaimer before using these data.